Time;durP1;ratioP1;P1;durP2;ratioP2;P2;SDS_P1;SDS_P2;PMS_P1;PMS_P2;Temp;Humidity;BMP_temperature;BMP_pressure;BME280_temperature;BME280_humidity;BME280_pressure;Samples;Min_cycle;Max_cycle;Signal;HPM_P1;HPM_P2
2022/04/16 00:01:49;;;;;;;4.80;3.05;;;;;;;15.91;44.07;100989.88;5033626;28;20508;-82
2022/04/16 00:04:16;;;;;;;4.95;3.25;;;;;;;15.88;44.15;100987.47;5017204;28;20136;-82
2022/04/16 00:06:44;;;;;;;4.45;3.00;;;;;;;15.86;44.24;100983.25;5012417;28;20489;-83
2022/04/16 00:09:11;;;;;;;5.53;3.08;;;;;;;15.82;43.98;100983.53;5029645;28;20041;-83
2022/04/16 00:11:38;;;;;;;5.68;2.70;;;;;;;15.81;43.98;100986.34;5015217;28;20041;-83
2022/04/16 00:14:05;;;;;;;4.93;3.08;;;;;;;15.78;44.48;100990.16;5028522;28;20067;-83
2022/04/16 00:16:34;;;;;;;5.55;3.05;;;;;;;15.77;44.48;100999.19;5001284;28;20105;-82
2022/04/16 00:19:01;;;;;;;4.93;2.97;;;;;;;15.76;44.21;100984.09;5002017;28;20068;-82
2022/04/16 00:21:28;;;;;;;4.15;2.55;;;;;;;15.75;44.32;100994.97;5023722;28;20052;-83
2022/04/16 00:23:55;;;;;;;3.90;2.28;;;;;;;15.64;44.49;100990.53;5038458;28;20049;-82
2022/04/16 00:26:21;;;;;;;4.90;2.80;;;;;;;15.63;44.80;100989.69;5027138;28;20447;-82
2022/04/16 00:28:51;;;;;;;4.70;3.15;;;;;;;15.60;44.70;100994.50;5026299;28;20044;-82
2022/04/16 00:31:20;;;;;;;6.60;3.20;;;;;;;15.58;44.34;100993.78;5026187;28;20041;-83
2022/04/16 00:33:47;;;;;;;6.35;3.53;;;;;;;15.55;44.75;100988.72;5043232;28;20045;-82
2022/04/16 00:36:15;;;;;;;6.97;4.10;;;;;;;15.54;44.65;100981.66;5008174;28;20048;-82
2022/04/16 00:38:42;;;;;;;5.82;3.50;;;;;;;15.52;44.84;100980.94;5029778;28;20144;-82
2022/04/16 00:41:12;;;;;;;8.32;3.28;;;;;;;15.49;44.58;100981.22;5023850;28;20048;-82
2022/04/16 00:43:39;;;;;;;5.78;3.08;;;;;;;15.46;44.74;100981.50;4988735;28;20046;-82
2022/04/16 00:46:06;;;;;;;5.45;3.05;;;;;;;15.44;44.81;100978.13;5011695;28;20049;-83
2022/04/16 00:48:33;;;;;;;6.35;3.08;;;;;;;15.43;44.98;100973.75;4996602;28;20057;-82
2022/04/16 00:50:59;;;;;;;7.75;2.90;;;;;;;15.43;44.87;100974.59;5019047;28;20095;-82
2022/04/16 00:53:29;;;;;;;5.03;2.90;;;;;;;15.36;44.77;100976.97;5014907;28;20050;-83
2022/04/16 00:56:00;;;;;;;5.88;2.17;;;;;;;15.28;45.27;100978.66;5010864;28;20053;-83
2022/04/16 00:58:27;;;;;;;2.92;2.30;;;;;;;15.26;45.36;100989.50;4993821;28;20048;-83
2022/04/16 01:00:54;;;;;;;3.78;2.30;;;;;;;15.23;45.51;100987.09;5000237;28;20500;-83
2022/04/16 01:03:21;;;;;;;4.57;2.55;;;;;;;15.21;45.79;100991.72;5047451;28;20144;-83
2022/04/16 01:05:49;;;;;;;3.83;2.30;;;;;;;15.19;45.36;100991.06;5009898;28;20056;-83
2022/04/16 01:08:19;;;;;;;3.60;2.40;;;;;;;15.17;45.56;100999.19;5010520;28;20052;-82
2022/04/16 01:10:45;;;;;;;6.20;3.30;;;;;;;15.14;45.24;101007.50;5002724;28;20107;-82
2022/04/16 01:13:12;;;;;;;3.70;2.95;;;;;;;15.14;45.02;101012.03;5037778;28;20166;-82
2022/04/16 01:15:39;;;;;;;3.92;2.92;;;;;;;15.12;44.77;101013.97;4988055;28;20064;-82
2022/04/16 01:18:07;;;;;;;5.45;3.55;;;;;;;15.11;44.77;101015.81;5003043;28;20053;-82
2022/04/16 01:20:36;;;;;;;7.72;3.25;;;;;;;15.08;45.28;101017.91;5038772;28;20063;-83
2022/04/16 01:23:04;;;;;;;6.20;3.30;;;;;;;15.09;45.32;101006.22;4998914;28;20058;-83
2022/04/16 01:25:32;;;;;;;7.72;4.35;;;;;;;15.08;45.20;101007.19;5011465;28;20055;-82
2022/04/16 01:28:22;;;;;;;9.38;4.60;;;;;;;15.05;45.28;101018.19;4988815;28;20386;-82
2022/04/16 01:30:48;;;;;;;6.47;4.18;;;;;;;15.04;45.47;101011.97;5044793;28;20385;-82
2022/04/16 01:33:17;;;;;;;7.75;4.32;;;;;;;15.03;45.52;100999.56;5013931;28;20045;-82
2022/04/16 01:35:44;;;;;;;11.00;4.60;;;;;;;15.01;45.59;101006.03;5049524;28;20047;-82
2022/04/16 01:38:11;;;;;;;6.95;3.80;;;;;;;14.98;45.60;101008.03;5013606;28;20567;-82
2022/04/16 01:40:38;;;;;;;7.15;4.18;;;;;;;14.97;45.48;101009.00;5009494;28;20046;-82
2022/04/16 01:43:05;;;;;;;6.72;3.90;;;;;;;14.94;45.59;101003.91;5017473;28;20054;-82
2022/04/16 01:45:33;;;;;;;8.23;3.92;;;;;;;14.93;45.50;101007.59;5001930;28;20049;-82
2022/04/16 01:48:01;;;;;;;5.40;3.33;;;;;;;14.92;45.72;101000.53;5041714;28;20124;-83
2022/04/16 01:50:28;;;;;;;4.93;3.58;;;;;;;14.85;45.64;101004.72;5023393;28;20505;-82
2022/04/16 01:52:55;;;;;;;5.25;3.60;;;;;;;14.84;45.55;101008.38;5002905;28;20507;-82
2022/04/16 01:55:22;;;;;;;5.45;3.42;;;;;;;14.83;45.82;101003.16;5034421;28;20513;-82
2022/04/16 01:57:49;;;;;;;6.68;4.03;;;;;;;14.82;45.87;100998.81;5046715;28;20045;-82
2022/04/16 02:00:15;;;;;;;5.38;3.20;;;;;;;14.80;45.68;101000.75;5030899;28;20099;-82
2022/04/16 02:02:42;;;;;;;7.95;3.40;;;;;;;14.75;45.59;101010.03;5044674;28;20053;-82
2022/04/16 02:05:10;;;;;;;6.72;3.17;;;;;;;14.69;45.58;101007.91;5017136;28;20040;-83
2022/04/16 02:07:38;;;;;;;5.60;2.90;;;;;;;14.67;45.63;101003.66;5028234;28;20408;-83
2022/04/16 02:10:06;;;;;;;5.53;2.97;;;;;;;14.66;46.08;101000.16;5006251;28;20512;-83
2022/04/16 02:12:32;;;;;;;4.38;2.83;;;;;;;14.65;46.13;101005.63;5008658;28;20493;-83
2022/04/16 02:15:00;;;;;;;5.05;3.10;;;;;;;14.62;45.92;101004.06;5011923;28;20045;-83
2022/04/16 02:17:27;;;;;;;4.55;2.90;;;;;;;14.58;46.30;101002.66;5043571;28;20120;-82
2022/04/16 02:19:54;;;;;;;5.53;2.92;;;;;;;14.57;45.97;101016.13;5029480;28;20045;-83
2022/04/16 02:22:20;;;;;;;5.93;2.95;;;;;;;14.55;46.02;101005.56;5028440;28;20833;-83
2022/04/16 02:24:47;;;;;;;3.80;2.67;;;;;;;14.51;46.32;101017.50;5009194;28;20900;-83
2022/04/16 02:27:14;;;;;;;5.70;2.70;;;;;;;14.50;46.27;101010.44;5025528;28;20050;-83
2022/04/16 02:29:42;;;;;;;3.47;2.22;;;;;;;14.45;46.36;101001.97;5026318;28;20131;-82
2022/04/16 02:32:10;;;;;;;2.92;2.58;;;;;;;14.43;46.21;100998.59;5010196;28;20038;-82
2022/04/16 02:34:37;;;;;;;4.78;2.65;;;;;;;14.43;46.63;100990.59;4990018;28;20084;-82
2022/04/16 02:37:04;;;;;;;4.05;2.63;;;;;;;14.44;46.79;100993.09;5021409;28;20052;-82
2022/04/16 02:39:31;;;;;;;3.40;2.70;;;;;;;14.45;46.59;100999.28;5014250;28;20045;-82
2022/04/16 02:41:57;;;;;;;5.68;2.95;;;;;;;14.43;46.96;101002.09;5026795;28;20049;-82
2022/04/16 02:47:10;;;;;;;4.15;2.75;;;;;;;14.42;46.87;100996.88;5024733;28;20156;-82
2022/04/16 02:49:40;;;;;;;6.45;2.92;;;;;;;14.44;46.93;101000.28;5018566;28;20048;-83
2022/04/16 02:52:07;;;;;;;4.00;2.95;;;;;;;14.43;47.12;101004.78;4974912;28;20049;-82
2022/04/16 02:54:35;;;;;;;2.78;2.47;;;;;;;14.42;47.18;100999.56;5040952;28;20124;-82
2022/04/16 02:57:03;;;;;;;4.32;2.92;;;;;;;14.42;47.41;100999.56;5007884;28;20124;-82
2022/04/16 02:59:30;;;;;;;3.55;2.50;;;;;;;14.40;47.22;100999.72;5021139;28;20099;-82
2022/04/16 03:01:56;;;;;;;4.57;3.03;;;;;;;14.40;47.44;101002.38;5009713;28;20046;-82
2022/04/16 03:04:26;;;;;;;3.38;2.88;;;;;;;14.39;47.34;100997.16;5041569;28;20084;-82
2022/04/16 03:06:53;;;;;;;4.47;3.00;;;;;;;14.38;47.74;100998.16;5024837;28;20512;-81
2022/04/16 03:09:20;;;;;;;4.28;2.30;;;;;;;14.38;47.56;100995.47;5024920;28;20038;-81
2022/04/16 03:11:46;;;;;;;4.05;2.88;;;;;;;14.35;47.61;100996.59;5016129;28;20131;-81
2022/04/16 03:19:45;;;;;;;3.78;2.63;;;;;;;14.27;47.49;100994.56;5001030;28;20095;-81
2022/04/16 03:22:13;;;;;;;4.60;2.97;;;;;;;14.24;47.38;101002.81;5045596;28;20052;-81
2022/04/16 03:24:39;;;;;;;3.83;2.67;;;;;;;14.19;47.36;101005.03;5024052;28;20508;-81
2022/04/16 03:27:07;;;;;;;4.80;2.85;;;;;;;14.15;47.64;101003.63;5031379;28;20122;-81
2022/04/16 03:29:34;;;;;;;4.10;2.75;;;;;;;14.10;48.02;101011.19;5037155;28;20052;-81
2022/04/16 03:32:01;;;;;;;3.78;2.85;;;;;;;14.07;47.99;101017.63;5023385;28;20057;-81
2022/04/16 03:34:32;;;;;;;4.13;3.08;;;;;;;14.02;48.33;101019.84;5030293;28;20096;-81
2022/04/16 03:36:59;;;;;;;4.72;2.78;;;;;;;14.09;48.09;101006.81;5024026;28;20041;-81
2022/04/16 03:39:34;;;;;;;3.58;2.78;;;;;;;14.07;48.69;101011.44;5000557;28;20148;-81
2022/04/16 03:42:01;;;;;;;4.13;3.15;;;;;;;14.09;48.60;101009.47;5028161;28;20128;-81
2022/04/16 03:44:56;;;;;;;3.15;2.63;;;;;;;13.92;49.45;101020.72;5019172;28;20055;-81
2022/04/16 03:47:22;;;;;;;3.35;2.60;;;;;;;14.08;48.82;101027.31;4949454;28;20042;-81
2022/04/16 03:49:49;;;;;;;3.10;2.70;;;;;;;14.08;48.98;101024.66;5044498;28;20064;-81
2022/04/16 03:52:16;;;;;;;4.25;3.13;;;;;;;14.08;48.97;101019.31;5031885;28;20053;-81
2022/04/16 04:00:13;;;;;;;3.00;2.40;;;;;;;14.03;48.93;101026.88;5008328;28;20056;-81
2022/04/16 04:02:40;;;;;;;5.20;3.03;;;;;;;14.03;48.96;101026.88;5031296;28;20053;-81
2022/04/16 04:05:07;;;;;;;4.22;2.92;;;;;;;14.03;48.90;101020.69;5014171;28;20061;-81
2022/04/16 04:07:34;;;;;;;3.38;2.78;;;;;;;14.02;49.14;101027.84;5046388;28;20052;-81
2022/04/16 04:10:01;;;;;;;3.92;3.00;;;;;;;14.00;49.20;101024.47;5028302;28;20399;-81
2022/04/16 04:12:28;;;;;;;3.92;2.63;;;;;;;14.00;49.29;101035.13;5043984;28;20041;-81
2022/04/16 04:14:55;;;;;;;3.85;2.75;;;;;;;14.00;49.39;101035.13;4998366;28;20048;-81
2022/04/16 04:17:22;;;;;;;6.32;3.10;;;;;;;14.00;49.52;101023.63;5011385;28;20048;-81
2022/04/16 04:19:48;;;;;;;4.90;2.95;;;;;;;14.00;49.75;101020.94;5007261;28;20109;-81
2022/04/16 04:22:16;;;;;;;6.85;2.80;;;;;;;13.97;49.79;101015.84;5040194;28;20045;-81
2022/04/16 04:24:43;;;;;;;8.85;3.40;;;;;;;13.95;49.53;101026.66;4999928;28;20125;-81
2022/04/16 04:27:10;;;;;;;4.55;2.92;;;;;;;13.95;49.64;101025.81;5045698;28;20519;-81
2022/04/16 04:29:37;;;;;;;4.32;3.13;;;;;;;13.93;49.87;101019.75;5047655;28;20045;-81
2022/04/16 04:32:05;;;;;;;4.85;3.35;;;;;;;13.92;50.06;101020.72;5007989;28;20057;-81
2022/04/16 04:34:32;;;;;;;4.75;3.17;;;;;;;13.90;50.22;101032.38;5005527;28;20061;-81
2022/04/16 04:36:58;;;;;;;3.83;3.17;;;;;;;13.87;50.17;101032.66;5014959;28;20054;-81
2022/04/16 04:39:25;;;;;;;4.63;3.38;;;;;;;13.86;50.18;101036.28;5022833;28;20418;-81
2022/04/16 04:42:23;;;;;;;3.72;3.00;;;;;;;13.65;50.93;101040.72;5025374;28;20151;-81
2022/04/16 04:44:50;;;;;;;7.40;3.55;;;;;;;13.79;50.54;101037.78;5010701;28;20491;-81
2022/04/16 04:47:17;;;;;;;6.07;3.28;;;;;;;13.79;50.64;101039.59;5004480;28;20049;-81
2022/04/16 04:49:44;;;;;;;4.70;3.05;;;;;;;13.79;50.92;101045.78;5017419;28;20046;-81
2022/04/16 04:52:10;;;;;;;5.18;3.13;;;;;;;13.80;50.83;101051.97;5047508;28;20047;-81
2022/04/16 04:54:37;;;;;;;3.97;2.90;;;;;;;13.78;51.13;101049.41;5032143;28;20038;-81
2022/04/16 04:57:04;;;;;;;5.68;3.03;;;;;;;13.79;51.04;101037.78;5033283;28;20115;-81
2022/04/16 04:59:31;;;;;;;4.10;2.90;;;;;;;13.79;51.29;101047.59;5041076;28;20045;-81
2022/04/16 05:01:57;;;;;;;4.88;3.20;;;;;;;13.76;51.33;101051.34;5051636;28;20046;-81
2022/04/16 05:04:24;;;;;;;5.07;3.50;;;;;;;13.76;51.23;101058.53;5050318;28;20046;-81
2022/04/16 05:06:52;;;;;;;7.25;3.50;;;;;;;13.73;51.11;101056.13;5023068;28;20053;-81
2022/04/16 05:09:22;;;;;;;7.47;4.03;;;;;;;13.72;50.87;101060.63;5036554;28;20548;-81
2022/04/16 05:11:48;;;;;;;7.30;3.70;;;;;;;13.72;50.81;101054.44;5017906;28;20481;-81
2022/04/16 05:14:15;;;;;;;6.10;3.50;;;;;;;13.71;51.09;101055.38;5021802;28;20100;-81
2022/04/16 05:16:42;;;;;;;5.20;3.75;;;;;;;13.70;51.13;101059.88;5016945;28;20038;-81
2022/04/16 05:19:09;;;;;;;7.35;4.78;;;;;;;13.69;50.94;101066.22;5030061;28;20041;-81
2022/04/16 05:21:35;;;;;;;5.55;3.65;;;;;;;13.70;51.18;101069.72;5024284;28;20038;-82
2022/04/16 05:24:03;;;;;;;7.72;3.53;;;;;;;13.67;51.80;101070.81;4994867;28;20038;-82
2022/04/16 05:26:29;;;;;;;5.72;3.53;;;;;;;13.65;51.55;101075.44;5042969;28;20053;-82
2022/04/16 05:28:56;;;;;;;4.68;3.92;;;;;;;13.63;52.15;101066.69;5012189;28;20099;-82
2022/04/16 05:31:26;;;;;;;8.70;4.70;;;;;;;13.64;51.81;101063.06;5033619;28;20099;-82
2022/04/16 05:36:39;;;;;;;6.00;3.80;;;;;;;13.60;52.32;101074.97;5006459;28;20469;-82
2022/04/16 05:39:06;;;;;;;5.82;3.65;;;;;;;13.61;52.55;101080.19;5022022;28;20133;-83
2022/04/16 05:41:33;;;;;;;5.57;3.92;;;;;;;13.60;52.50;101077.63;5015204;28;20501;-82
2022/04/16 05:44:03;;;;;;;6.18;4.57;;;;;;;13.60;52.54;101085.63;5012940;28;20053;-82
2022/04/16 05:46:29;;;;;;;7.10;4.22;;;;;;;13.60;52.61;101090.97;5027549;28;20051;-82
2022/04/16 05:48:57;;;;;;;7.60;3.97;;;;;;;13.59;52.73;101099.97;5034122;28;20159;-82
2022/04/16 05:51:24;;;;;;;7.45;4.40;;;;;;;13.60;53.17;101102.50;4995192;28;20129;-82
2022/04/16 05:53:52;;;;;;;7.20;4.53;;;;;;;13.58;53.34;101104.44;5015291;28;20044;-83
2022/04/16 05:56:19;;;;;;;4.70;3.67;;;;;;;13.58;53.66;101101.75;4999769;28;20051;-82
2022/04/16 05:58:46;;;;;;;8.20;4.22;;;;;;;13.42;54.38;101099.50;5041982;28;20049;-82
2022/04/16 06:01:13;;;;;;;8.63;5.40;;;;;;;13.30;53.98;101099.63;5028400;28;20058;-82
2022/04/16 06:03:40;;;;;;;7.30;4.50;;;;;;;13.34;54.09;101101.09;5009120;28;20045;-82
2022/04/16 06:06:09;;;;;;;8.88;5.35;;;;;;;13.23;54.43;101102.75;5011625;28;20069;-82
2022/04/16 06:08:36;;;;;;;8.27;5.45;;;;;;;13.06;54.69;101115.72;5046719;28;20057;-82
2022/04/16 06:11:04;;;;;;;10.63;5.28;;;;;;;13.15;53.99;101115.84;5009886;28;20053;-83
2022/04/16 06:13:31;;;;;;;10.20;5.63;;;;;;;13.01;54.84;101108.94;5031686;28;20042;-82
2022/04/16 06:16:00;;;;;;;9.50;5.75;;;;;;;13.07;54.74;101114.75;5013772;28;20049;-82
2022/04/16 06:18:27;;;;;;;13.70;5.85;;;;;;;13.14;54.75;101131.97;5012439;28;20126;-82
2022/04/16 06:20:57;;;;;;;8.55;5.30;;;;;;;12.93;55.16;101118.50;5032500;28;20111;-81
2022/04/16 06:23:24;;;;;;;10.75;5.88;;;;;;;12.94;55.13;101131.69;5018238;28;20045;-81
2022/04/16 06:25:50;;;;;;;9.07;5.78;;;;;;;12.81;54.20;101147.78;5012650;28;20489;-81
2022/04/16 06:28:17;;;;;;;9.88;5.80;;;;;;;12.56;54.50;101134.66;5026496;28;20056;-81
2022/04/16 06:30:44;;;;;;;8.52;5.47;;;;;;;12.67;53.50;101139.16;5029122;28;20096;-81
2022/04/16 06:33:11;;;;;;;9.25;5.35;;;;;;;12.71;53.61;101137.97;5023895;28;20047;-81
2022/04/16 06:35:37;;;;;;;8.98;5.63;;;;;;;12.67;53.09;101144.47;5027019;28;20432;-81
2022/04/16 06:38:04;;;;;;;8.88;5.68;;;;;;;12.84;52.36;101140.53;5045340;28;20056;-81
2022/04/16 06:40:31;;;;;;;8.73;5.55;;;;;;;12.63;53.20;101153.69;5027336;28;20041;-81
2022/04/16 06:43:23;;;;;;;11.15;6.10;;;;;;;12.36;53.74;101146.81;5032931;28;20092;-81
2022/04/16 06:45:56;;;;;;;10.98;5.68;;;;;;;12.02;54.45;101164.44;4973343;28;20049;-81
2022/04/16 06:48:23;;;;;;;9.68;5.28;;;;;;;12.17;54.17;101168.66;5003731;28;20042;-81
2022/04/16 06:50:49;;;;;;;10.35;6.38;;;;;;;12.21;54.00;101155.94;5013798;28;20149;-81
2022/04/16 06:53:16;;;;;;;11.75;6.82;;;;;;;12.24;54.30;101155.72;5024097;28;20041;-81
2022/04/16 06:55:43;;;;;;;9.07;5.63;;;;;;;12.29;54.85;101159.75;5021872;28;20430;-81
2022/04/16 06:58:34;;;;;;;9.65;5.75;;;;;;;12.27;54.79;101168.81;5009205;28;20160;-81
2022/04/16 07:01:01;;;;;;;10.68;5.85;;;;;;;12.35;54.08;101163.75;4970775;28;20081;-81
2022/04/16 07:03:30;;;;;;;10.45;6.40;;;;;;;12.23;53.98;101175.31;5038248;28;20389;-81
2022/04/16 07:05:57;;;;;;;10.00;5.97;;;;;;;12.33;54.35;101165.69;5006092;28;20056;-81
2022/04/16 07:08:23;;;;;;;14.02;6.97;;;;;;;12.34;54.37;101170.06;5027537;28;20049;-81
2022/04/16 07:10:52;;;;;;;11.95;7.05;;;;;;;12.10;54.83;101164.72;5014347;28;20050;-81
2022/04/16 07:13:20;;;;;;;11.65;6.53;;;;;;;12.19;54.91;101168.50;5029689;28;20445;-81
2022/04/16 07:15:48;;;;;;;11.38;6.25;;;;;;;12.19;54.57;101166.72;5016051;28;20571;-81
2022/04/16 07:18:15;;;;;;;12.00;6.43;;;;;;;12.25;54.50;101168.91;5048215;28;20040;-82
2022/04/16 07:20:42;;;;;;;14.70;6.97;;;;;;;12.42;54.37;101165.00;4998828;28;20053;-82
2022/04/16 07:23:11;;;;;;;11.40;6.22;;;;;;;12.46;54.21;101170.94;5030202;28;20038;-82
2022/04/16 07:25:38;;;;;;;11.50;6.63;;;;;;;12.33;54.92;101177.19;5024398;28;20404;-82
2022/04/16 07:28:04;;;;;;;14.07;6.88;;;;;;;12.20;54.70;101180.88;5018351;28;20053;-80
2022/04/16 07:30:31;;;;;;;12.00;6.50;;;;;;;11.91;55.38;101174.06;4991595;28;20067;-79
2022/04/16 07:32:59;;;;;;;13.07;6.30;;;;;;;12.41;54.63;101175.78;5040539;28;20052;-80
2022/04/16 07:35:27;;;;;;;14.13;7.05;;;;;;;12.24;54.80;101188.53;5001563;28;20112;-79
2022/04/16 07:37:57;;;;;;;11.88;6.32;;;;;;;12.26;53.84;101189.28;5036057;28;20046;-79
2022/04/16 07:40:28;;;;;;;12.25;6.85;;;;;;;12.26;54.06;101191.06;5021744;28;20370;-79
2022/04/16 07:42:55;;;;;;;15.48;8.13;;;;;;;12.06;54.34;101200.50;5022331;28;20048;-79
2022/04/16 07:45:22;;;;;;;15.13;8.13;;;;;;;12.12;54.52;101197.41;5048274;28;20431;-79
2022/04/16 07:47:49;;;;;;;14.02;7.43;;;;;;;12.20;54.24;101189.72;4986777;28;20486;-78
2022/04/16 07:50:16;;;;;;;13.93;7.85;;;;;;;12.25;54.77;101194.72;5023195;28;20049;-77
2022/04/16 07:52:44;;;;;;;13.13;7.15;;;;;;;12.26;54.17;101212.38;5043516;28;20485;-78
2022/04/16 07:55:13;;;;;;;13.38;7.50;;;;;;;12.40;53.99;101206.88;5031935;28;20049;-78
2022/04/16 07:57:40;;;;;;;14.68;8.73;;;;;;;12.49;53.89;101219.53;5018338;28;20048;-77
2022/04/16 08:00:08;;;;;;;13.23;7.10;;;;;;;12.38;54.25;101211.47;5046461;28;20053;-77
2022/04/16 08:02:38;;;;;;;15.38;7.43;;;;;;;12.26;54.24;101207.91;5013219;28;20041;-77
2022/04/16 08:05:07;;;;;;;16.15;7.63;;;;;;;12.29;54.36;101217.50;5027159;28;20079;-81
2022/04/16 08:07:34;;;;;;;13.18;7.25;;;;;;;12.41;53.94;101207.72;5013554;28;20095;-82
2022/04/16 08:10:02;;;;;;;12.40;7.75;;;;;;;12.46;54.18;101214.41;4994246;28;20054;-82
2022/04/16 08:12:29;;;;;;;12.38;6.40;;;;;;;12.42;53.07;101204.97;4994622;28;20067;-78
2022/04/16 08:14:57;;;;;;;12.25;7.05;;;;;;;12.41;53.89;101215.72;5010957;28;20042;-79
2022/04/16 08:17:24;;;;;;;15.02;7.45;;;;;;;12.42;53.96;101226.28;4998113;28;20052;-78
2022/04/16 08:19:51;;;;;;;13.63;7.10;;;;;;;12.36;52.49;101216.94;5012556;28;20487;-78
2022/04/16 08:22:21;;;;;;;13.10;6.72;;;;;;;12.52;52.86;101210.47;5039512;28;20052;-78
2022/04/16 08:25:43;;;;;;;13.50;7.22;;;;;;;12.43;53.36;101219.13;5042656;28;20458;-79
2022/04/16 08:27:45;;;;;;;15.02;8.20;;;;;;;12.41;54.04;101205.91;4995492;28;20112;-79
2022/04/16 08:30:13;;;;;;;14.20;7.32;;;;;;;12.72;52.90;101212.47;5026532;28;20072;-77
2022/04/16 08:32:41;;;;;;;12.43;6.88;;;;;;;12.63;52.61;101210.50;5014697;28;20038;-78
2022/04/16 08:35:12;;;;;;;13.40;6.30;;;;;;;12.66;52.90;101215.59;5012543;28;20077;-78
2022/04/16 08:37:40;;;;;;;11.32;5.68;;;;;;;12.36;53.38;101219.59;5033248;28;20041;-79
2022/04/16 08:40:09;;;;;;;12.55;6.72;;;;;;;12.33;52.49;101218.97;5037191;28;20136;-79
2022/04/16 08:42:37;;;;;;;13.52;7.10;;;;;;;12.37;53.08;101221.28;5027370;28;20496;-80
2022/04/16 08:45:05;;;;;;;14.02;6.88;;;;;;;12.21;53.56;101206.53;5005346;28;20053;-78
2022/04/16 08:47:32;;;;;;;14.85;7.47;;;;;;;12.14;53.20;101217.66;5016225;28;20139;-78
2022/04/16 08:50:00;;;;;;;15.00;6.53;;;;;;;12.36;52.77;101213.41;5024795;28;20390;-78
2022/04/16 08:52:31;;;;;;;12.05;7.00;;;;;;;12.46;51.78;101210.91;5037951;28;20065;-79
2022/04/16 08:54:58;;;;;;;11.48;6.35;;;;;;;12.45;51.57;101236.69;5012071;28;20049;-79
2022/04/16 08:57:25;;;;;;;9.68;5.93;;;;;;;12.54;51.54;101235.16;4997983;28;20048;-79
2022/04/16 08:59:53;;;;;;;12.00;6.10;;;;;;;12.43;51.56;101225.31;4979384;28;20068;-79
2022/04/16 09:02:22;;;;;;;10.15;6.05;;;;;;;12.42;52.01;101228.94;5014889;28;20413;-79
2022/04/16 09:04:51;;;;;;;9.70;6.05;;;;;;;12.48;52.20;101212.50;5022330;28;20046;-79
2022/04/16 09:07:20;;;;;;;10.38;6.07;;;;;;;12.56;52.09;101220.75;5030869;28;20562;-78
2022/04/16 09:09:47;;;;;;;11.13;5.90;;;;;;;12.73;52.22;101218.66;5005122;28;20041;-78
2022/04/16 09:12:20;;;;;;;10.80;6.00;;;;;;;12.71;51.62;101216.09;5021470;28;20051;-79
2022/04/16 09:14:47;;;;;;;11.38;6.38;;;;;;;12.70;52.19;101226.88;4998191;28;20065;-78
2022/04/16 09:17:17;;;;;;;10.48;6.00;;;;;;;12.78;51.03;101232.50;5036807;28;20100;-78
2022/04/16 09:19:54;;;;;;;13.18;5.10;;;;;;;12.61;51.36;101225.75;5000080;28;20488;-78
2022/04/16 09:22:35;;;;;;;11.07;5.25;;;;;;;12.71;51.36;101225.91;4976620;28;20049;-79
2022/04/16 09:25:04;;;;;;;8.95;4.80;;;;;;;12.73;51.47;101234.66;4979761;28;20492;-78
2022/04/16 09:27:41;;;;;;;10.38;5.60;;;;;;;12.58;52.15;101239.31;4984971;28;20111;-78
2022/04/16 09:30:09;;;;;;;8.63;4.85;;;;;;;12.87;50.67;101237.09;5006679;28;20486;-78
2022/04/16 09:32:44;;;;;;;9.45;4.85;;;;;;;12.59;50.74;101231.22;5037597;28;20529;-78
2022/04/16 09:35:27;;;;;;;8.45;4.75;;;;;;;12.77;50.02;101241.44;5026731;28;20512;-78
2022/04/16 09:38:14;;;;;;;8.25;4.57;;;;;;;12.75;50.13;101252.22;5021096;28;20095;-78
2022/04/16 09:40:45;;;;;;;8.52;4.18;;;;;;;12.47;50.25;101242.78;5000551;28;20041;-78
2022/04/16 09:43:13;;;;;;;8.50;4.93;;;;;;;12.78;50.18;101238.66;5017705;28;20475;-78
2022/04/16 09:45:41;;;;;;;6.70;4.18;;;;;;;12.73;50.02;101239.97;5013177;28;20037;-78
2022/04/16 09:48:10;;;;;;;7.18;4.15;;;;;;;12.68;49.78;101242.13;5045963;28;20412;-78
2022/04/16 09:50:38;;;;;;;6.10;4.03;;;;;;;12.61;50.60;101241.72;5030146;28;20051;-79
2022/04/16 09:53:06;;;;;;;7.68;4.20;;;;;;;12.81;50.70;101240.25;5033525;28;20058;-79
2022/04/16 09:55:33;;;;;;;6.30;3.92;;;;;;;12.78;50.28;101238.66;5049545;28;20047;-78
2022/04/16 09:58:01;;;;;;;7.13;3.72;;;;;;;12.80;49.98;101243.88;5025885;28;20129;-78
2022/04/16 10:00:30;;;;;;;8.77;3.88;;;;;;;13.02;48.40;101259.94;4998546;28;20072;-78
2022/04/16 10:02:56;;;;;;;7.30;3.70;;;;;;;12.85;48.31;101232.84;5043629;28;20050;-78
2022/04/16 10:05:24;;;;;;;6.32;3.90;;;;;;;12.97;48.05;101239.94;4993676;28;20125;-78
2022/04/16 10:07:52;;;;;;;8.10;3.67;;;;;;;12.75;48.92;101256.72;4985776;28;20046;-78
2022/04/16 10:10:30;;;;;;;7.18;3.58;;;;;;;12.75;49.30;101243.38;5018397;28;20108;-79
2022/04/16 10:13:07;;;;;;;7.90;3.30;;;;;;;12.84;48.61;101241.81;5018941;28;20061;-78
2022/04/16 10:16:02;;;;;;;8.13;4.18;;;;;;;12.74;48.21;101241.66;5001658;28;20670;-78
2022/04/16 10:18:32;;;;;;;6.05;3.40;;;;;;;12.86;48.71;101250.56;4981197;28;20060;-78
2022/04/16 10:21:00;;;;;;;5.93;3.10;;;;;;;12.97;48.46;101242.59;4979966;28;20046;-78
2022/04/16 10:23:38;;;;;;;5.95;2.88;;;;;;;13.00;47.51;101250.34;5029531;28;20548;-78
2022/04/16 10:26:14;;;;;;;7.28;2.53;;;;;;;12.92;46.38;101237.59;5008758;28;20056;-78
2022/04/16 10:28:41;;;;;;;5.28;2.50;;;;;;;13.07;46.63;101232.91;5002489;28;20046;-79
2022/04/16 10:31:23;;;;;;;3.15;2.30;;;;;;;12.81;46.47;101248.25;4993365;28;20041;-78
2022/04/16 10:33:57;;;;;;;4.28;2.75;;;;;;;12.97;47.14;101251.44;4984386;28;20484;-83
2022/04/16 10:36:47;;;;;;;7.78;3.47;;;;;;;12.92;46.63;101240.28;4999460;28;20041;-83
2022/04/16 10:39:24;;;;;;;5.05;2.97;;;;;;;13.06;46.44;101235.72;4981004;28;20045;-83
2022/04/16 10:41:55;;;;;;;9.25;3.38;;;;;;;12.91;47.87;101259.06;5006749;28;20063;-84
2022/04/16 10:44:23;;;;;;;5.63;3.20;;;;;;;13.11;46.77;101233.56;4994975;28;20534;-84
2022/04/16 10:46:53;;;;;;;7.72;4.10;;;;;;;12.81;47.46;101253.56;5003267;28;20069;-85
2022/04/16 10:49:23;;;;;;;8.00;4.35;;;;;;;13.01;46.06;101236.91;5038909;28;20045;-84
2022/04/16 10:55:48;;;;;;;9.45;4.10;;;;;;;12.95;45.04;101247.19;4980787;28;20045;-79
2022/04/16 10:58:26;;;;;;;7.45;3.97;;;;;;;13.11;45.74;101239.72;4988562;28;20489;-80
2022/04/16 11:01:04;;;;;;;9.20;4.28;;;;;;;12.85;46.12;101238.19;4948770;28;20049;-79
2022/04/16 11:03:31;;;;;;;8.88;4.60;;;;;;;12.87;46.31;101244.25;5041288;28;20092;-80
2022/04/16 11:06:05;;;;;;;9.73;4.82;;;;;;;12.88;46.06;101238.81;5012057;28;20493;-80
2022/04/16 11:08:35;;;;;;;7.43;5.07;;;;;;;13.13;45.55;101229.81;4984280;28;20043;-80
2022/04/16 11:11:05;;;;;;;8.05;4.18;;;;;;;13.10;47.07;101242.50;5041387;28;20128;-79
2022/04/16 11:13:34;;;;;;;8.23;4.13;;;;;;;13.10;46.09;101235.38;5013390;28;20045;-80
2022/04/16 11:16:01;;;;;;;5.53;4.05;;;;;;;12.99;47.27;101230.84;4988928;28;20052;-81
2022/04/16 11:18:43;;;;;;;8.55;4.68;;;;;;;12.87;46.48;101252.25;5004087;28;20041;-80
2022/04/16 11:21:12;;;;;;;8.60;4.82;;;;;;;12.89;44.75;101232.50;5045010;28;20799;-81
2022/04/16 11:23:40;;;;;;;9.13;4.75;;;;;;;13.12;45.91;101217.41;4988883;28;20072;-81
2022/04/16 11:34:29;;;;;;;6.55;3.63;;;;;;;13.36;45.63;101257.41;5042933;28;20074;-81
2022/04/16 11:37:16;;;;;;;7.25;4.43;;;;;;;13.39;43.91;101206.47;5004682;28;20417;-81
2022/04/16 11:39:46;;;;;;;6.43;3.78;;;;;;;13.42;44.76;101206.22;5045077;28;20037;-80
2022/04/16 11:42:12;;;;;;;6.97;4.13;;;;;;;13.37;45.37;101207.56;5025500;28;20501;-81
2022/04/16 11:44:42;;;;;;;8.63;5.05;;;;;;;13.44;44.41;101212.28;5031179;28;20444;-81
2022/04/16 11:47:17;;;;;;;7.07;4.22;;;;;;;13.34;44.43;101235.31;4990429;28;20061;-81
2022/04/16 11:49:52;;;;;;;7.03;4.20;;;;;;;13.42;43.21;101216.03;5006585;28;20820;-81
2022/04/16 11:52:39;;;;;;;6.78;3.95;;;;;;;13.21;41.94;101227.38;5016648;28;20133;-81
2022/04/16 11:55:17;;;;;;;6.95;3.83;;;;;;;13.34;42.16;101211.31;5018426;28;20037;-81
2022/04/16 11:57:46;;;;;;;5.65;3.80;;;;;;;13.42;42.50;101224.88;5039366;28;20403;-81
2022/04/16 12:00:13;;;;;;;6.38;4.40;;;;;;;13.70;41.26;101225.38;5045722;28;20041;-81
2022/04/16 12:02:42;;;;;;;8.85;4.18;;;;;;;13.63;41.39;101225.00;5043646;28;20518;-81